Time;durP1;ratioP1;P1;durP2;ratioP2;P2;SDS_P1;SDS_P2;PMS_P1;PMS_P2;Temp;Humidity;BMP_temperature;BMP_pressure;BME280_temperature;BME280_humidity;BME280_pressure;Samples;Min_cycle;Max_cycle;Signal;HPM_P1;HPM_P2
2021/03/26 00:01:10;;;;;;;8.13;5.28;;;;;;;-140.79;100.00;63287.88;4914962;29;20552;-76
2021/03/26 00:03:38;;;;;;;7.85;5.22;;;;;;;-140.79;100.00;63287.88;4915247;29;20046;-76
2021/03/26 00:06:09;;;;;;;8.15;5.65;;;;;;;-140.79;100.00;63287.88;4932163;29;20035;-76
2021/03/26 00:08:35;;;;;;;7.78;5.82;;;;;;;-140.79;100.00;63287.88;4935293;29;20031;-77
2021/03/26 00:11:01;;;;;;;7.35;5.32;;;;;;;-140.79;100.00;63287.88;4934568;29;20031;-78
2021/03/26 00:13:26;;;;;;;8.52;5.78;;;;;;;-140.79;100.00;63287.88;4950853;29;20034;-79
2021/03/26 00:15:52;;;;;;;8.93;5.85;;;;;;;-140.79;100.00;63287.88;4933462;29;20031;-77
2021/03/26 00:18:17;;;;;;;9.32;6.55;;;;;;;-140.79;100.00;63287.88;4933392;29;20024;-77
2021/03/26 00:20:43;;;;;;;9.13;5.65;;;;;;;-140.79;100.00;63287.88;4950825;29;20418;-78
2021/03/26 00:23:09;;;;;;;8.05;5.03;;;;;;;-140.79;100.00;63287.88;4933871;29;20050;-76
2021/03/26 00:25:34;;;;;;;9.50;5.70;;;;;;;-140.79;100.00;63287.88;4933761;29;20050;-76
2021/03/26 00:28:00;;;;;;;8.43;5.40;;;;;;;-140.79;100.00;63287.88;4933880;29;20027;-76
2021/03/26 00:30:26;;;;;;;9.82;6.93;;;;;;;-140.79;100.00;63287.88;4952311;29;20094;-78
2021/03/26 00:32:51;;;;;;;9.20;5.78;;;;;;;-140.79;100.00;63287.88;4953861;28;20037;-78
2021/03/26 00:35:18;;;;;;;9.05;6.00;;;;;;;-140.79;100.00;63287.88;4956295;29;20070;-78
2021/03/26 00:37:43;;;;;;;8.55;5.72;;;;;;;-140.79;100.00;63287.88;4951036;29;20464;-78
2021/03/26 00:40:11;;;;;;;9.20;5.93;;;;;;;-140.79;100.00;63287.88;4934112;29;20121;-79
2021/03/26 00:42:36;;;;;;;10.65;5.95;;;;;;;-140.79;100.00;63287.88;4950538;29;20038;-78
2021/03/26 00:45:04;;;;;;;8.90;5.63;;;;;;;-140.79;100.00;63287.88;4932972;29;20031;-77
2021/03/26 00:47:29;;;;;;;9.90;6.15;;;;;;;-140.79;100.00;63287.88;4950672;29;20462;-77
2021/03/26 00:49:55;;;;;;;8.68;5.90;;;;;;;-140.79;100.00;63287.88;4933133;29;20027;-78
2021/03/26 00:52:20;;;;;;;9.20;6.43;;;;;;;-140.79;100.00;63287.88;4917590;29;20027;-77
2021/03/26 00:54:46;;;;;;;10.32;6.53;;;;;;;-140.79;100.00;63287.88;4949322;29;20420;-78
2021/03/26 00:57:11;;;;;;;10.52;6.50;;;;;;;-140.79;100.00;63287.88;4917190;29;20027;-78
2021/03/26 00:59:37;;;;;;;10.10;6.13;;;;;;;-140.79;100.00;63287.88;4933194;29;20427;-78
2021/03/26 01:02:02;;;;;;;9.77;6.28;;;;;;;-140.79;100.00;63287.88;4917735;29;20031;-77
2021/03/26 01:04:28;;;;;;;10.18;6.55;;;;;;;-140.79;100.00;63287.88;4950058;29;20464;-78
2021/03/26 01:06:53;;;;;;;10.50;6.32;;;;;;;-140.79;100.00;63287.88;4933102;29;20035;-78
2021/03/26 01:09:19;;;;;;;10.27;6.63;;;;;;;-140.79;100.00;63287.88;4950358;29;20035;-78
2021/03/26 01:11:44;;;;;;;10.25;6.70;;;;;;;-140.79;100.00;63287.88;4948893;29;20031;-78
2021/03/26 01:14:14;;;;;;;9.13;5.97;;;;;;;-140.79;100.00;63287.88;4932887;29;20038;-77
2021/03/26 01:16:39;;;;;;;10.43;6.53;;;;;;;-140.79;100.00;63287.88;4933750;29;20035;-78
2021/03/26 01:19:05;;;;;;;9.13;5.80;;;;;;;-140.79;100.00;63287.88;4933252;29;20027;-77
2021/03/26 01:21:32;;;;;;;11.18;7.05;;;;;;;-140.79;100.00;63287.88;4932934;29;20557;-78
2021/03/26 01:23:57;;;;;;;9.65;6.40;;;;;;;-140.79;100.00;63287.88;4948989;29;20027;-78
2021/03/26 01:26:24;;;;;;;10.30;6.68;;;;;;;-140.79;100.00;63287.88;4948728;28;20425;-78
2021/03/26 01:28:49;;;;;;;10.40;6.28;;;;;;;-140.79;100.00;63287.88;4932975;29;20023;-79
2021/03/26 01:31:15;;;;;;;11.68;6.30;;;;;;;-140.79;100.00;63287.88;4951625;28;20090;-78
2021/03/26 01:33:40;;;;;;;10.25;6.43;;;;;;;-140.79;100.00;63287.88;4936259;29;20030;-79
2021/03/26 01:36:07;;;;;;;10.73;6.82;;;;;;;-140.79;100.00;63287.88;4954188;29;20023;-78
2021/03/26 01:38:32;;;;;;;10.07;6.68;;;;;;;-140.79;100.00;63287.88;4953600;29;20517;-77
2021/03/26 01:41:06;;;;;;;12.73;7.32;;;;;;;-140.79;100.00;63287.88;4936170;29;20042;-78
2021/03/26 01:43:36;;;;;;;10.65;6.68;;;;;;;-140.79;100.00;63287.88;4952615;29;20031;-78
2021/03/26 01:46:03;;;;;;;10.50;6.38;;;;;;;-140.79;100.00;63287.88;4936436;29;20062;-78
2021/03/26 01:48:35;;;;;;;10.30;6.57;;;;;;;-140.79;100.00;63287.88;4953484;29;20031;-78
2021/03/26 01:51:01;;;;;;;11.07;6.63;;;;;;;-140.79;100.00;63287.88;4934932;29;20023;-78
2021/03/26 01:53:26;;;;;;;11.50;7.45;;;;;;;-140.79;100.00;63287.88;4953151;29;20023;-78
2021/03/26 01:55:53;;;;;;;10.38;7.05;;;;;;;-140.79;100.00;63287.88;4935895;29;20023;-78
2021/03/26 01:58:26;;;;;;;11.65;7.00;;;;;;;-140.79;100.00;63287.88;4936175;29;20061;-77
2021/03/26 02:00:57;;;;;;;10.85;6.75;;;;;;;-140.79;100.00;63287.88;4936501;29;20082;-78
2021/03/26 02:03:26;;;;;;;11.02;6.40;;;;;;;-140.79;100.00;63287.88;4935793;29;20094;-78
2021/03/26 02:05:53;;;;;;;12.17;7.90;;;;;;;-140.79;100.00;63287.88;4936121;29;20027;-77
2021/03/26 02:08:29;;;;;;;11.48;7.60;;;;;;;-140.79;100.00;63287.88;4932833;29;20056;-78
2021/03/26 02:10:55;;;;;;;10.90;6.90;;;;;;;-140.79;100.00;63287.88;4932767;29;20501;-77
2021/03/26 02:13:26;;;;;;;10.82;7.13;;;;;;;-140.79;100.00;63287.88;4932702;29;20027;-77
2021/03/26 02:15:52;;;;;;;9.75;7.03;;;;;;;-140.79;100.00;63287.88;4917039;29;20024;-78
2021/03/26 02:18:21;;;;;;;10.93;7.30;;;;;;;-140.79;100.00;63287.88;4932555;29;20042;-77
2021/03/26 02:20:53;;;;;;;11.20;7.07;;;;;;;-140.79;100.00;63287.88;4916980;29;20035;-77
2021/03/26 02:23:20;;;;;;;12.00;7.28;;;;;;;-140.79;100.00;63287.88;4942555;28;20027;-77
2021/03/26 02:25:46;;;;;;;12.73;7.93;;;;;;;-140.79;100.00;63287.88;4954639;28;20022;-78
2021/03/26 02:28:11;;;;;;;12.18;8.00;;;;;;;-140.79;100.00;63287.88;4971010;28;20029;-78
2021/03/26 02:30:40;;;;;;;12.05;7.60;;;;;;;-140.79;100.00;63287.88;4970879;28;20023;-78
2021/03/26 02:33:06;;;;;;;12.70;7.13;;;;;;;-140.79;100.00;63287.88;4972069;28;20015;-77
2021/03/26 02:35:34;;;;;;;10.52;6.85;;;;;;;-140.79;100.00;63287.88;4971947;28;20030;-78
2021/03/26 02:38:21;;;;;;;11.50;7.72;;;;;;;-140.79;100.00;63287.88;4971851;28;20096;-78
2021/03/26 02:40:53;;;;;;;10.68;7.18;;;;;;;-140.79;100.00;63287.88;4954405;28;20030;-77
2021/03/26 02:43:36;;;;;;;10.40;6.88;;;;;;;-140.79;100.00;63287.88;4970167;28;20073;-78
2021/03/26 02:46:22;;;;;;;10.95;7.10;;;;;;;-140.79;100.00;63287.88;4970360;28;20031;-78
2021/03/26 02:49:09;;;;;;;11.73;7.43;;;;;;;-140.79;100.00;63287.88;4954315;28;20026;-78
2021/03/26 02:51:37;;;;;;;10.10;6.93;;;;;;;-140.79;100.00;63287.88;4930338;29;20046;-78
2021/03/26 02:54:39;;;;;;;10.85;6.90;;;;;;;-140.79;100.00;63287.88;4932168;29;20038;-78
2021/03/26 02:57:13;;;;;;;13.80;7.60;;;;;;;-140.79;100.00;63287.88;4931936;29;20027;-78
2021/03/26 03:00:00;;;;;;;12.45;7.28;;;;;;;-140.79;100.00;63287.88;4932240;29;20031;-77
2021/03/26 03:02:27;;;;;;;11.13;7.07;;;;;;;-140.79;100.00;63287.88;4929152;29;20059;-77
2021/03/26 03:05:22;;;;;;;11.60;7.47;;;;;;;-140.79;100.00;63287.88;4931716;29;20509;-78
2021/03/26 03:07:52;;;;;;;12.27;7.40;;;;;;;-140.79;100.00;63287.88;4928223;29;20525;-78
2021/03/26 03:10:43;;;;;;;13.75;8.20;;;;;;;-140.79;100.00;63287.88;4915911;29;20511;-77
2021/03/26 03:13:24;;;;;;;12.18;7.40;;;;;;;-140.79;100.00;63287.88;4924088;29;20032;-78
2021/03/26 03:16:00;;;;;;;12.60;7.53;;;;;;;-140.79;100.00;63287.88;4932115;29;20043;-78
2021/03/26 03:18:34;;;;;;;10.98;7.43;;;;;;;-140.79;100.00;63287.88;4932874;29;20027;-78
2021/03/26 03:21:24;;;;;;;11.20;7.13;;;;;;;-140.79;100.00;63287.88;4931498;29;20028;-77
2021/03/26 03:23:53;;;;;;;11.25;7.97;;;;;;;-140.79;100.00;63287.88;4915498;29;20036;-78
2021/03/26 03:26:29;;;;;;;12.93;8.63;;;;;;;-140.79;100.00;63287.88;4931335;29;20057;-78
2021/03/26 03:29:00;;;;;;;13.55;7.90;;;;;;;-140.79;100.00;63287.88;4931603;29;20071;-78
2021/03/26 03:31:38;;;;;;;12.25;6.97;;;;;;;-140.79;100.00;63287.88;4949427;29;20035;-78
2021/03/26 03:34:21;;;;;;;12.02;7.35;;;;;;;-140.79;100.00;63287.88;4934663;29;20015;-78
2021/03/26 03:37:14;;;;;;;11.43;7.43;;;;;;;-140.79;100.00;63287.88;4933355;29;20035;-77
2021/03/26 03:40:04;;;;;;;14.00;8.05;;;;;;;-140.79;100.00;63287.88;4936395;29;20035;-77
2021/03/26 03:43:12;;;;;;;11.50;7.30;;;;;;;-140.79;100.00;63287.88;4950305;29;20444;-77
2021/03/26 03:46:02;;;;;;;11.07;7.25;;;;;;;-140.79;100.00;63287.88;4876549;29;20097;-78
2021/03/26 03:48:42;;;;;;;12.93;7.60;;;;;;;-140.79;100.00;63287.88;4892252;29;20048;-78
2021/03/26 03:51:13;;;;;;;13.35;7.60;;;;;;;-140.79;100.00;63287.88;4909670;29;20046;-78
2021/03/26 03:53:50;;;;;;;11.75;7.93;;;;;;;-140.79;100.00;63287.88;4933591;29;20027;-78
2021/03/26 03:56:31;;;;;;;11.18;7.68;;;;;;;-140.79;100.00;63287.88;4933859;29;20113;-77
2021/03/26 03:59:00;;;;;;;12.55;7.65;;;;;;;-140.79;100.00;63287.88;4951303;29;20031;-77
2021/03/26 04:01:30;;;;;;;11.27;7.50;;;;;;;-140.79;100.00;63287.88;4951040;29;20023;-78
2021/03/26 04:04:18;;;;;;;;;;;;;;;-140.79;100.00;63287.88;4943229;28;20048;-77
2021/03/26 04:06:55;;;;;;;11.90;7.25;;;;;;;-140.79;100.00;63287.88;4933447;28;19922;-77
2021/03/26 04:09:21;;;;;;;14.95;7.60;;;;;;;-140.79;100.00;63287.88;4932904;29;20130;-77
2021/03/26 04:11:53;;;;;;;12.38;7.53;;;;;;;-140.79;100.00;63287.88;4936715;28;20031;-73
2021/03/26 04:14:37;;;;;;;12.55;7.88;;;;;;;-140.79;100.00;63287.88;4948844;28;20015;-74
2021/03/26 04:17:28;;;;;;;12.10;7.47;;;;;;;-140.79;100.00;63287.88;4956496;28;20476;-73
2021/03/26 04:19:59;;;;;;;12.60;7.22;;;;;;;-140.79;100.00;63287.88;4920604;28;20443;-74
2021/03/26 04:22:30;;;;;;;12.52;7.22;;;;;;;-140.79;100.00;63287.88;4959590;28;20041;-76
2021/03/26 04:25:11;;;;;;;11.23;7.45;;;;;;;-140.79;100.00;63287.88;4952506;28;20050;-74
2021/03/26 04:27:40;;;;;;;12.73;7.50;;;;;;;-140.79;100.00;63287.88;4945809;28;20043;-74
2021/03/26 04:30:06;;;;;;;11.63;7.53;;;;;;;-140.79;100.00;63287.88;4960096;28;20026;-73
2021/03/26 04:32:31;;;;;;;10.73;6.85;;;;;;;-140.79;100.00;63287.88;4958980;28;20304;-72
2021/03/26 04:34:57;;;;;;;11.60;7.70;;;;;;;-140.79;100.00;63287.88;4964800;28;20027;-73
2021/03/26 04:37:36;;;;;;;12.90;7.57;;;;;;;-140.79;100.00;63287.88;4960858;28;20027;-74
2021/03/26 04:40:07;;;;;;;12.75;7.38;;;;;;;-140.79;100.00;63287.88;4936653;28;20064;-72
2021/03/26 04:42:51;;;;;;;12.65;7.63;;;;;;;-140.79;100.00;63287.88;4961082;28;20577;-73
2021/03/26 04:45:19;;;;;;;12.15;7.20;;;;;;;-140.79;100.00;63287.88;4963344;28;20023;-74
2021/03/26 04:48:24;;;;;;;12.13;8.02;;;;;;;-140.79;100.00;63287.88;4960930;28;20050;-74
2021/03/26 04:51:21;;;;;;;10.02;6.95;;;;;;;-140.79;100.00;63287.88;4961326;28;20019;-77
2021/03/26 04:54:01;;;;;;;13.52;7.40;;;;;;;-140.79;100.00;63287.88;4940739;28;20098;-77
2021/03/26 04:56:28;;;;;;;11.63;7.25;;;;;;;-140.79;100.00;63287.88;4960132;28;20031;-76
2021/03/26 04:58:59;;;;;;;10.07;6.88;;;;;;;-140.79;100.00;63287.88;4962928;28;20039;-76
2021/03/26 05:01:24;;;;;;;23.25;8.65;;;;;;;-140.79;100.00;63287.88;4960642;28;20042;-78
2021/03/26 05:04:00;;;;;;;10.95;7.07;;;;;;;-140.79;100.00;63287.88;4944071;29;20054;-77
2021/03/26 05:06:29;;;;;;;10.65;6.75;;;;;;;-140.79;100.00;63287.88;4961675;28;20035;-78
2021/03/26 05:09:17;;;;;;;10.68;6.68;;;;;;;-140.79;100.00;63287.88;4962976;28;20095;-80
2021/03/26 05:11:44;;;;;;;10.98;7.28;;;;;;;-140.79;100.00;63287.88;4923108;29;20140;-75
2021/03/26 05:14:31;;;;;;;11.35;6.72;;;;;;;-140.79;100.00;63287.88;4937010;29;20473;-77
2021/03/26 05:17:05;;;;;;;10.05;6.57;;;;;;;-140.79;100.00;63287.88;4927052;29;20092;-75
2021/03/26 05:20:03;;;;;;;10.75;7.00;;;;;;;-140.79;100.00;63287.88;4940441;29;20019;-75
2021/03/26 05:22:48;;;;;;;10.30;6.63;;;;;;;-140.79;100.00;63287.88;4932282;29;20047;-75
2021/03/26 05:25:36;;;;;;;12.40;7.70;;;;;;;-140.79;100.00;63287.88;4946656;28;20067;-77
2021/03/26 05:28:04;;;;;;;11.23;7.47;;;;;;;-140.79;100.00;63287.88;4928841;29;20035;-81
2021/03/26 05:30:34;;;;;;;11.10;7.43;;;;;;;-140.79;100.00;63287.88;4940533;29;20037;-76
2021/03/26 05:33:01;;;;;;;;;;;;;;;-140.79;100.00;63287.88;4944416;28;20063;-79
2021/03/26 05:35:38;;;;;;;11.57;7.10;;;;;;;-140.79;100.00;63287.88;4941700;29;19910;-74
2021/03/26 05:38:16;;;;;;;10.48;6.75;;;;;;;-140.79;100.00;63287.88;4940358;28;20055;-75
2021/03/26 05:40:53;;;;;;;11.88;7.10;;;;;;;-140.79;100.00;63287.88;4915932;29;20083;-75
2021/03/26 05:43:56;;;;;;;10.90;6.80;;;;;;;-140.79;100.00;63287.88;4934976;29;20130;-74
2021/03/26 05:46:41;;;;;;;10.88;6.90;;;;;;;-140.79;100.00;63287.88;4946243;29;20028;-79
2021/03/26 05:49:09;;;;;;;11.90;7.90;;;;;;;-140.79;100.00;63287.88;4929285;29;20106;-78
2021/03/26 05:52:12;;;;;;;11.65;7.10;;;;;;;-140.79;100.00;63287.88;4939758;29;20402;-78
2021/03/26 05:54:48;;;;;;;10.95;7.38;;;;;;;-140.79;100.00;63287.88;4949167;29;20346;-73
2021/03/26 05:57:23;;;;;;;11.25;7.25;;;;;;;-140.79;100.00;63287.88;4956962;28;20031;-71
2021/03/26 06:00:19;;;;;;;9.80;6.88;;;;;;;-140.79;100.00;63287.88;4964620;28;20508;-71
2021/03/26 06:03:22;;;;;;;10.25;6.30;;;;;;;-140.79;100.00;63287.88;4944338;29;20027;-74
2021/03/26 06:06:05;;;;;;;10.38;6.97;;;;;;;-140.79;100.00;63287.88;4940644;29;20504;-74
2021/03/26 06:08:52;;;;;;;11.63;7.07;;;;;;;-140.79;100.00;63287.88;4940801;29;20093;-73
2021/03/26 06:11:33;;;;;;;11.13;7.35;;;;;;;-140.79;100.00;63287.88;4940802;29;20058;-73
2021/03/26 06:14:07;;;;;;;11.23;6.80;;;;;;;-140.79;100.00;63287.88;4930515;29;20028;-73
2021/03/26 06:16:42;;;;;;;10.65;6.50;;;;;;;-140.79;100.00;63287.88;4928168;29;20031;-75
2021/03/26 06:19:26;;;;;;;11.02;7.35;;;;;;;-140.79;100.00;63287.88;4935885;29;20031;-77
2021/03/26 06:22:00;;;;;;;9.68;6.90;;;;;;;-140.79;100.00;63287.88;4930245;29;20032;-77
2021/03/26 06:25:01;;;;;;;11.80;6.95;;;;;;;-140.79;100.00;63287.88;4943291;29;20030;-74
2021/03/26 06:27:33;;;;;;;9.43;6.47;;;;;;;-140.79;100.00;63287.88;4953076;28;20034;-75
2021/03/26 06:30:24;;;;;;;11.05;7.00;;;;;;;-140.79;100.00;63287.88;4960919;28;20467;-77
2021/03/26 06:33:12;;;;;;;9.60;6.32;;;;;;;-140.79;100.00;63287.88;4941830;29;20027;-73
2021/03/26 06:35:58;;;;;;;10.88;6.75;;;;;;;-140.79;100.00;63287.88;4962980;28;20039;-76
2021/03/26 06:38:38;;;;;;;10.82;7.43;;;;;;;-140.79;100.00;63287.88;4881616;28;20098;-73
2021/03/26 06:41:13;;;;;;;9.65;6.45;;;;;;;-140.79;100.00;63287.88;4932743;29;20042;-73
2021/03/26 06:43:44;;;;;;;9.25;6.90;;;;;;;-140.79;100.00;63287.88;4940477;29;20050;-77
2021/03/26 06:46:21;;;;;;;10.80;6.78;;;;;;;-140.79;100.00;63287.88;4941035;29;20031;-74
2021/03/26 06:49:27;;;;;;;9.50;6.63;;;;;;;-140.79;100.00;63287.88;4927680;29;20091;-77
2021/03/26 06:52:20;;;;;;;9.73;6.35;;;;;;;-140.79;100.00;63287.88;4915275;29;20422;-75
2021/03/26 06:54:48;;;;;;;9.02;6.18;;;;;;;-140.79;100.00;63287.88;4936981;29;20094;-74
2021/03/26 06:57:17;;;;;;;11.88;7.40;;;;;;;-140.79;100.00;63287.88;4938538;29;20139;-77
2021/03/26 07:00:08;;;;;;;10.90;6.88;;;;;;;-140.79;100.00;63287.88;4969248;29;20049;-79
2021/03/26 07:02:55;;;;;;;9.20;6.35;;;;;;;-140.79;100.00;63287.88;4950879;29;20043;-75
2021/03/26 07:05:42;;;;;;;11.02;6.68;;;;;;;-140.79;100.00;63287.88;4976656;28;20059;-77
2021/03/26 07:08:25;;;;;;;9.18;6.18;;;;;;;-140.79;100.00;63287.88;4965899;28;20058;-78
2021/03/26 07:11:03;;;;;;;9.65;6.28;;;;;;;-140.79;100.00;63287.88;4966989;28;20050;-78
2021/03/26 07:13:49;;;;;;;10.13;6.65;;;;;;;-140.79;100.00;63287.88;4963063;28;20030;-78
2021/03/26 07:16:47;;;;;;;8.63;6.18;;;;;;;-140.79;100.00;63287.88;4960887;28;20121;-78
2021/03/26 07:19:37;;;;;;;9.68;6.15;;;;;;;-140.79;100.00;63287.88;4949433;28;20078;-78
2021/03/26 07:22:09;;;;;;;11.18;5.78;;;;;;;-140.79;100.00;63287.88;4948247;28;20149;-77
2021/03/26 07:25:00;;;;;;;9.38;5.90;;;;;;;-140.79;100.00;63287.88;4930001;28;20149;-78
2021/03/26 07:27:45;;;;;;;9.50;6.10;;;;;;;-140.79;100.00;63287.88;4953968;28;20039;-78
2021/03/26 07:30:20;;;;;;;9.52;6.28;;;;;;;-140.79;100.00;63287.88;4963881;28;20519;-76
2021/03/26 07:32:55;;;;;;;10.25;6.20;;;;;;;-140.79;100.00;63287.88;4937386;29;20063;-77
2021/03/26 07:35:52;;;;;;;9.43;6.22;;;;;;;-140.79;100.00;63287.88;4962185;28;20120;-77
2021/03/26 07:38:36;;;;;;;8.85;5.95;;;;;;;-140.79;100.00;63287.88;4955180;28;20042;-77
2021/03/26 07:41:26;;;;;;;9.40;6.10;;;;;;;-140.79;100.00;63287.88;4951412;28;20035;-76
2021/03/26 07:44:30;;;;;;;10.02;6.20;;;;;;;-140.79;100.00;63287.88;4963536;28;20518;-76
2021/03/26 07:47:40;;;;;;;10.10;5.93;;;;;;;-140.79;100.00;63287.88;4969960;28;20105;-77
2021/03/26 07:50:23;;;;;;;9.57;6.25;;;;;;;-140.79;100.00;63287.88;4947274;28;20533;-76
2021/03/26 07:53:00;;;;;;;10.82;6.30;;;;;;;-140.79;100.00;63287.88;4962525;28;20062;-77
2021/03/26 07:55:32;;;;;;;8.30;5.50;;;;;;;-140.79;100.00;63287.88;4972405;28;20033;-76
2021/03/26 07:58:22;;;;;;;9.40;5.40;;;;;;;-140.79;100.00;63287.88;4966176;28;20422;-77
2021/03/26 08:00:53;;;;;;;;;;;;;;;-140.79;100.00;63287.88;4964388;28;20031;-76
2021/03/26 08:03:19;;;;;;;12.25;6.05;;;;;;;-140.79;100.00;63287.88;4956398;28;19930;-79
2021/03/26 08:05:53;;;;;;;8.85;5.97;;;;;;;-140.79;100.00;63287.88;4961115;28;20035;-77
2021/03/26 08:08:34;;;;;;;10.15;5.80;;;;;;;-140.79;100.00;63287.88;4961311;28;20038;-77
2021/03/26 08:11:14;;;;;;;10.75;6.00;;;;;;;-140.79;100.00;63287.88;4961514;28;20535;-77
2021/03/26 08:13:58;;;;;;;8.40;5.30;;;;;;;-140.79;100.00;63287.88;4956559;28;20027;-77
2021/03/26 08:16:48;;;;;;;10.75;5.90;;;;;;;-140.79;100.00;63287.88;4942855;28;20110;-76
2021/03/26 08:19:13;;;;;;;;;;;;;;;-140.79;100.00;63287.88;4954807;28;20041;-76
2021/03/26 08:22:13;;;;;;;9.65;5.68;;;;;;;-140.79;100.00;63287.88;4948880;28;19922;-80
2021/03/26 08:24:56;;;;;;;9.13;5.80;;;;;;;-140.79;100.00;63287.88;4944670;28;20027;-77
2021/03/26 08:27:44;;;;;;;11.02;6.25;;;;;;;-140.79;100.00;63287.88;4950975;28;20062;-78
2021/03/26 08:30:47;;;;;;;8.63;5.35;;;;;;;-140.79;100.00;63287.88;4966046;28;20035;-76
2021/03/26 08:33:16;;;;;;;7.85;5.50;;;;;;;-140.79;100.00;63287.88;4959551;28;20030;-76
2021/03/26 08:36:01;;;;;;;8.77;6.07;;;;;;;-140.79;100.00;63287.88;4967293;28;20039;-76
2021/03/26 08:38:44;;;;;;;9.57;5.65;;;;;;;-140.79;100.00;63287.88;4961923;28;20067;-76
2021/03/26 08:41:27;;;;;;;8.32;5.50;;;;;;;-140.79;100.00;63287.88;4947842;28;20046;-76
2021/03/26 08:43:54;;;;;;;8.73;5.53;;;;;;;-140.79;100.00;63287.88;4955396;28;20035;-76
2021/03/26 08:46:38;;;;;;;9.38;5.60;;;;;;;-140.79;100.00;63287.88;4931426;29;20525;-77
2021/03/26 08:49:14;;;;;;;9.07;5.43;;;;;;;-140.79;100.00;63287.88;4958073;28;20035;-77
2021/03/26 08:51:55;;;;;;;9.50;5.68;;;;;;;-140.79;100.00;63287.88;4954778;28;20897;-76
2021/03/26 08:54:45;;;;;;;8.27;5.40;;;;;;;-140.79;100.00;63287.88;4955993;28;20043;-75
2021/03/26 08:57:13;;;;;;;8.80;5.65;;;;;;;-140.79;100.00;63287.88;4956651;28;20039;-75
2021/03/26 08:59:59;;;;;;;9.90;5.90;;;;;;;-140.79;100.00;63287.88;4959684;28;20066;-76
2021/03/26 09:02:40;;;;;;;9.25;5.30;;;;;;;-140.79;100.00;63287.88;4959528;28;20019;-77
2021/03/26 09:05:15;;;;;;;9.32;6.10;;;;;;;-140.79;100.00;63287.88;4956358;28;20047;-76
2021/03/26 09:07:46;;;;;;;8.48;5.03;;;;;;;-140.79;100.00;63287.88;4952674;28;20086;-77
2021/03/26 09:10:14;;;;;;;8.93;5.47;;;;;;;-140.79;100.00;63287.88;4941121;29;20571;-76
2021/03/26 09:12:55;;;;;;;8.23;5.13;;;;;;;-140.79;100.00;63287.88;4950604;28;20023;-76
2021/03/26 09:15:30;;;;;;;8.18;5.30;;;;;;;-140.79;100.00;63287.88;4933177;29;20035;-76
2021/03/26 09:18:42;;;;;;;9.80;5.28;;;;;;;-140.79;100.00;63287.88;4948237;29;20460;-75
2021/03/26 09:21:43;;;;;;;7.20;4.70;;;;;;;-140.79;100.00;63287.88;4926493;28;20539;-75
2021/03/26 09:24:19;;;;;;;7.30;4.70;;;;;;;-140.79;100.00;63287.88;4916808;29;20063;-76
2021/03/26 09:27:12;;;;;;;6.90;5.18;;;;;;;-140.79;100.00;63287.88;4915102;29;20039;-76
2021/03/26 09:30:08;;;;;;;7.72;4.80;;;;;;;-140.79;100.00;63287.88;4941902;28;20424;-78
2021/03/26 09:32:43;;;;;;;8.35;4.68;;;;;;;-140.79;100.00;63287.88;4962142;28;20029;-75
2021/03/26 09:35:10;;;;;;;7.38;4.90;;;;;;;-140.79;100.00;63287.88;4916479;28;20028;-77
2021/03/26 09:37:46;;;;;;;8.32;4.78;;;;;;;-140.79;100.00;63287.88;4956804;28;20504;-76
2021/03/26 09:40:33;;;;;;;6.93;4.80;;;;;;;-140.79;100.00;63287.88;4946011;29;20031;-78
2021/03/26 09:43:13;;;;;;;6.97;4.60;;;;;;;-140.79;100.00;63287.88;4933267;29;20074;-77
2021/03/26 09:45:40;;;;;;;8.23;4.65;;;;;;;-140.79;100.00;63287.88;4933446;28;20031;-76
2021/03/26 09:48:38;;;;;;;7.20;4.88;;;;;;;-140.79;100.00;63287.88;4932908;29;20043;-75
2021/03/26 09:51:23;;;;;;;7.15;4.85;;;;;;;-140.79;100.00;63287.88;4937108;28;20122;-75
2021/03/26 09:53:49;;;;;;;7.43;4.75;;;;;;;-140.79;100.00;63287.88;4967230;28;20074;-76
2021/03/26 09:56:24;;;;;;;6.07;4.40;;;;;;;-140.79;100.00;63287.88;4967636;28;20026;-76
2021/03/26 09:58:58;;;;;;;7.07;4.97;;;;;;;-140.79;100.00;63287.88;4966111;28;20035;-78
2021/03/26 10:01:37;;;;;;;6.30;4.35;;;;;;;-140.79;100.00;63287.88;4956079;28;20114;-78
2021/03/26 10:04:33;;;;;;;6.93;4.32;;;;;;;-140.79;100.00;63287.88;4954498;29;20039;-77
2021/03/26 10:07:34;;;;;;;6.50;4.40;;;;;;;-140.79;100.00;63287.88;4941656;29;20051;-77
2021/03/26 10:10:43;;;;;;;8.00;4.50;;;;;;;-140.79;100.00;63287.88;4936181;29;20039;-77
2021/03/26 10:12:49;;;;;;;6.85;4.45;;;;;;;-140.79;100.00;63287.88;4920777;29;20094;-77
2021/03/26 10:15:21;;;;;;;7.25;4.43;;;;;;;-140.79;100.00;63287.88;4920183;28;20050;-77
2021/03/26 10:17:59;;;;;;;6.50;4.07;;;;;;;-140.79;100.00;63287.88;4953341;29;20031;-76
2021/03/26 10:20:34;;;;;;;6.47;4.30;;;;;;;-140.79;100.00;63287.88;4953214;29;20031;-79
2021/03/26 10:23:03;;;;;;;6.25;4.15;;;;;;;-140.79;100.00;63287.88;4936416;29;22026;-77
2021/03/26 10:25:39;;;;;;;7.57;4.07;;;;;;;-140.79;100.00;63287.88;4957214;29;20054;-79
2021/03/26 10:28:18;;;;;;;6.45;4.03;;;;;;;-140.79;100.00;63287.88;4961931;29;20039;-78
2021/03/26 10:30:45;;;;;;;5.82;3.97;;;;;;;-140.79;100.00;63287.88;4944054;29;20110;-77
2021/03/26 10:33:13;;;;;;;6.07;3.95;;;;;;;-140.79;100.00;63287.88;4934801;28;20023;-74
2021/03/26 10:35:40;;;;;;;9.50;4.10;;;;;;;-140.79;100.00;63287.88;4948454;28;20027;-75
2021/03/26 10:38:37;;;;;;;8.43;3.80;;;;;;;-140.79;100.00;63287.88;4934884;28;20035;-76
2021/03/26 10:41:07;;;;;;;5.88;3.65;;;;;;;-140.79;100.00;63287.88;4948575;28;20114;-76
2021/03/26 10:43:36;;;;;;;6.78;3.72;;;;;;;-140.79;100.00;63287.88;4932925;29;20027;-79
2021/03/26 10:46:15;;;;;;;5.35;3.60;;;;;;;-140.79;100.00;63287.88;4951509;28;20044;-75
2021/03/26 10:48:55;;;;;;;6.53;3.75;;;;;;;-140.79;100.00;63287.88;4929541;28;20085;-75
2021/03/26 10:51:45;;;;;;;5.72;3.65;;;;;;;-140.79;100.00;63287.88;4949996;28;20090;-75
2021/03/26 10:54:13;;;;;;;7.50;4.20;;;;;;;-140.79;100.00;63287.88;4949787;28;20031;-74
2021/03/26 10:56:49;;;;;;;6.05;3.90;;;;;;;-140.79;100.00;63287.88;4943498;28;20031;-75
2021/03/26 10:59:45;;;;;;;6.25;3.78;;;;;;;-140.79;100.00;63287.88;4948270;28;20035;-77
2021/03/26 11:02:47;;;;;;;5.50;3.53;;;;;;;-140.79;100.00;63287.88;4931962;28;20046;-77
2021/03/26 11:05:31;;;;;;;6.53;3.85;;;;;;;-140.79;100.00;63287.88;4940049;28;20078;-77
2021/03/26 11:07:59;;;;;;;5.05;3.72;;;;;;;-140.79;100.00;63287.88;4964024;28;20039;-77
2021/03/26 11:10:46;;;;;;;5.35;3.50;;;;;;;-140.79;100.00;63287.88;4950101;28;20094;-77
2021/03/26 11:13:23;;;;;;;5.10;3.28;;;;;;;-140.79;100.00;63287.88;4938812;28;20026;-77
2021/03/26 11:15:51;;;;;;;4.60;3.40;;;;;;;-140.79;100.00;63287.88;4948121;28;20496;-77
2021/03/26 11:18:19;;;;;;;5.97;3.20;;;;;;;-140.79;100.00;63287.88;4940392;28;21026;-76
2021/03/26 11:20:49;;;;;;;5.78;3.63;;;;;;;-140.79;100.00;63287.88;4948041;28;20043;-78
2021/03/26 11:23:16;;;;;;;7.05;5.00;;;;;;;-140.79;100.00;63287.88;4932748;28;20933;-78
2021/03/26 11:25:46;;;;;;;6.03;3.42;;;;;;;-140.79;100.00;63287.88;4928975;29;20053;-76
2021/03/26 11:28:27;;;;;;;5.40;3.60;;;;;;;-140.79;100.00;63287.88;4934300;29;20404;-78
2021/03/26 11:31:24;;;;;;;6.55;3.70;;;;;;;-140.79;100.00;63287.88;4936899;28;21131;-74
2021/03/26 11:34:13;;;;;;;5.30;3.40;;;;;;;-140.79;100.00;63287.88;4956249;28;20489;-74
2021/03/26 11:36:48;;;;;;;5.23;3.43;;;;;;;-140.79;100.00;63287.88;4887204;28;20044;-75
2021/03/26 11:39:29;;;;;;;6.47;3.25;;;;;;;-140.79;100.00;63287.88;4934315;29;20059;-75
2021/03/26 11:41:55;;;;;;;4.80;3.33;;;;;;;-140.79;100.00;63287.88;4914598;29;20117;-76
2021/03/26 11:44:23;;;;;;;4.93;3.50;;;;;;;-140.79;100.00;63287.88;4916060;29;20035;-76
2021/03/26 11:46:55;;;;;;;4.53;3.15;;;;;;;-140.79;100.00;63287.88;4928974;29;20038;-79
2021/03/26 11:49:30;;;;;;;5.60;3.83;;;;;;;-140.79;100.00;63287.88;4929098;28;20047;-77
2021/03/26 11:52:14;;;;;;;7.35;3.30;;;;;;;-140.79;100.00;63287.88;4925852;29;20090;-77